createdAt,value
2019-06-08T00:02:28.735Z,18.61
2019-06-08T00:07:30.948Z,18.61
2019-06-08T00:12:32.824Z,18.53
2019-06-08T00:17:38.794Z,18.42
2019-06-08T00:22:39.012Z,18.26
2019-06-08T00:27:42.074Z,18.20
2019-06-08T00:32:44.965Z,18.17
2019-06-08T00:37:47.044Z,18.05
2019-06-08T00:42:49.020Z,17.91
2019-06-08T00:47:50.933Z,17.82
2019-06-08T00:52:52.802Z,17.73
2019-06-08T00:57:55.161Z,17.73
2019-06-08T01:02:57.346Z,17.66
2019-06-08T01:07:59.287Z,17.68
2019-06-08T01:13:01.551Z,17.66
2019-06-08T01:18:04.440Z,17.69
2019-06-08T01:23:06.651Z,17.62
2019-06-08T01:28:09.021Z,17.65
2019-06-08T01:33:10.892Z,17.60
2019-06-08T01:38:12.932Z,17.31
2019-06-08T01:43:14.794Z,17.29
2019-06-08T01:48:20.301Z,17.00
2019-06-08T01:53:20.989Z,16.66
2019-06-08T01:58:23.374Z,16.38
2019-06-08T02:03:26.230Z,16.25
2019-06-08T02:08:28.706Z,16.25
2019-06-08T02:13:31.009Z,16.24
2019-06-08T02:18:45.738Z,16.22
2019-06-08T02:23:37.323Z,16.32
2019-06-08T02:28:40.123Z,16.58
2019-06-08T02:33:42.505Z,16.76
2019-06-08T02:38:44.452Z,16.83
2019-06-08T02:43:46.517Z,16.84
2019-06-08T02:49:03.589Z,16.92
2019-06-08T02:53:52.559Z,17.02
2019-06-08T02:58:57.411Z,17.08
2019-06-08T03:04:00.732Z,16.92
2019-06-08T03:09:04.988Z,16.77
2019-06-08T03:14:08.040Z,16.58
2019-06-08T03:19:21.737Z,16.55
2019-06-08T03:24:13.899Z,16.51
2019-06-08T03:29:16.031Z,16.59
2019-06-08T03:34:18.054Z,16.53
2019-06-08T03:39:21.098Z,16.52
2019-06-08T03:44:22.935Z,16.51
2019-06-08T03:49:41.546Z,16.35
2019-06-08T03:54:32.393Z,16.50
2019-06-08T03:59:35.964Z,16.58
2019-06-08T04:04:39.842Z,16.67
2019-06-08T04:09:43.484Z,16.72
2019-06-08T04:14:47.401Z,16.64
2019-06-08T04:20:06.349Z,16.55
2019-06-08T04:24:53.291Z,16.55
2019-06-08T04:29:55.284Z,16.57
2019-06-08T04:34:57.152Z,16.43
2019-06-08T04:39:59.177Z,16.49
2019-06-08T04:45:01.279Z,16.28
2019-06-08T04:50:20.824Z,16.32
2019-06-08T04:55:08.200Z,16.31
2019-06-08T05:00:12.510Z,16.28
2019-06-08T05:05:14.677Z,16.33
2019-06-08T05:10:16.835Z,16.45
2019-06-08T05:15:18.841Z,16.43
2019-06-08T05:20:34.977Z,16.57
2019-06-08T05:25:25.561Z,16.57
2019-06-08T05:30:28.230Z,16.74
2019-06-08T05:35:30.321Z,16.91
2019-06-08T05:40:32.446Z,16.93
2019-06-08T05:45:34.575Z,16.99
2019-06-08T05:50:36.744Z,17.27
2019-06-08T05:55:39.745Z,17.61
2019-06-08T06:00:42.191Z,17.64
2019-06-08T06:05:44.368Z,17.76
2019-06-08T06:10:46.907Z,17.64
2019-06-08T06:15:49.258Z,17.57
2019-06-08T06:20:51.450Z,17.57
2019-06-08T06:25:54.707Z,17.61
2019-06-08T06:30:56.851Z,17.59
2019-06-08T06:35:58.892Z,17.52
2019-06-08T06:41:03.795Z,17.39
2019-06-08T06:46:05.876Z,17.35
2019-06-08T06:51:07.944Z,17.36
2019-06-08T06:56:09.819Z,17.36
2019-06-08T07:01:12.207Z,17.21
2019-06-08T07:06:14.291Z,17.13
2019-06-08T07:11:16.338Z,17.21
2019-06-08T07:16:19.037Z,17.25
2019-06-08T07:21:21.502Z,17.23
2019-06-08T07:26:23.539Z,17.19
2019-06-08T07:31:25.527Z,17.11
2019-06-08T07:36:27.621Z,17.00
2019-06-08T07:41:30.781Z,17.08
2019-06-08T07:46:33.894Z,17.11
2019-06-08T07:51:35.785Z,17.24
2019-06-08T07:56:37.805Z,17.38
2019-06-08T08:01:39.879Z,17.59
2019-06-08T08:06:41.971Z,17.77
2019-06-08T08:11:44.195Z,17.68
2019-06-08T08:16:46.575Z,17.57
2019-06-08T08:21:51.890Z,17.40
2019-06-08T08:26:53.246Z,17.31
2019-06-08T08:32:00.140Z,17.44
2019-06-08T08:37:05.956Z,17.42
2019-06-08T08:42:08.327Z,17.35
2019-06-08T08:47:09.800Z,17.47
2019-06-08T08:52:11.924Z,17.66
2019-06-08T08:57:13.951Z,17.56
2019-06-08T09:02:21.023Z,17.31
2019-06-08T09:07:19.962Z,17.24
2019-06-08T09:12:21.935Z,17.24
2019-06-08T09:17:23.925Z,17.22
2019-06-08T09:22:52.929Z,17.34
2019-06-08T09:27:42.852Z,17.53
2019-06-08T09:32:44.945Z,17.79
2019-06-08T09:37:48.567Z,18.08
2019-06-08T09:42:51.496Z,18.08
2019-06-08T09:47:55.399Z,18.26
2019-06-08T09:53:14.845Z,18.58
2019-06-08T09:58:05.040Z,18.56
2019-06-08T10:03:07.160Z,18.53
2019-06-08T10:08:09.835Z,18.79
2019-06-08T10:13:12.068Z,19.03
2019-06-08T10:18:13.953Z,19.28
2019-06-08T10:23:30.302Z,19.38
2019-06-08T10:28:21.786Z,19.51
2019-06-08T10:33:24.118Z,19.59
2019-06-08T10:38:28.789Z,19.72
2019-06-08T10:43:30.285Z,19.87
2019-06-08T10:48:32.458Z,20.09
2019-06-08T10:53:48.277Z,20.24
2019-06-08T10:58:38.383Z,20.41
2019-06-08T11:03:40.508Z,20.56
2019-06-08T11:08:42.641Z,20.49
2019-06-08T11:13:44.900Z,20.74
2019-06-08T11:18:50.576Z,20.91
2019-06-08T11:24:05.556Z,20.87
2019-06-08T11:28:54.956Z,20.94
2019-06-08T11:33:58.927Z,21.17
2019-06-08T11:39:02.495Z,21.42
2019-06-08T11:44:08.181Z,21.27
2019-06-08T11:49:13.436Z,21.27
2019-06-08T11:54:29.496Z,21.25
2019-06-08T11:59:18.687Z,21.37
2019-06-08T12:04:20.691Z,21.23
2019-06-08T12:09:23.669Z,21.32
2019-06-08T12:14:25.970Z,21.41
2019-06-08T12:19:28.325Z,21.58
2019-06-08T12:24:41.425Z,21.52
2019-06-08T12:29:35.613Z,21.57
2019-06-08T12:34:38.398Z,21.87
2019-06-08T12:39:40.372Z,22.01
2019-06-08T12:44:43.801Z,22.05
2019-06-08T12:49:48.262Z,21.57
2019-06-08T12:55:02.470Z,21.71
2019-06-08T12:59:53.830Z,21.65
2019-06-08T13:04:55.984Z,22.12
2019-06-08T13:09:58.522Z,22.41
2019-06-08T13:15:00.499Z,22.09
2019-06-08T13:20:03.106Z,22.12
2019-06-08T13:25:21.135Z,22.02
2019-06-08T13:30:11.902Z,21.65
2019-06-08T13:35:18.844Z,21.65
2019-06-08T13:40:21.915Z,21.51
2019-06-08T13:49:09.120Z,21.76
2019-06-08T13:54:11.125Z,21.86
2019-06-08T13:59:14.267Z,21.67
2019-06-08T14:04:18.968Z,21.67
2019-06-08T14:09:22.087Z,21.60
2019-06-08T14:14:25.877Z,21.51
2019-06-08T14:19:31.382Z,21.41
2019-06-08T14:24:37.766Z,21.55
2019-06-08T14:29:40.089Z,21.69
2019-06-08T14:34:42.306Z,21.54
2019-06-08T14:39:44.405Z,21.74
2019-06-08T14:44:47.602Z,21.88
2019-06-08T14:49:49.691Z,21.81
2019-06-08T14:54:51.901Z,21.95
2019-06-08T14:59:56.323Z,21.93
2019-06-08T15:04:57.630Z,21.99
2019-06-08T15:09:59.813Z,22.39
2019-06-08T15:15:01.966Z,22.26
2019-06-08T15:20:04.527Z,22.18
2019-06-08T15:25:08.224Z,21.95
2019-06-08T15:30:11.685Z,21.89
2019-06-08T15:35:13.782Z,21.85
2019-06-08T15:40:17.751Z,21.73
2019-06-08T15:45:19.839Z,21.92
2019-06-08T15:50:22.250Z,22.01
2019-06-08T15:55:24.725Z,22.16
2019-06-08T16:00:31.038Z,22.09
2019-06-08T16:05:32.213Z,21.72
2019-06-08T16:10:34.366Z,21.47
2019-06-08T16:15:36.386Z,21.68
2019-06-08T16:20:38.333Z,21.84
2019-06-08T16:25:40.398Z,21.99
2019-06-08T16:30:42.995Z,21.91
2019-06-08T16:35:45.063Z,22.07
2019-06-08T16:40:47.440Z,22.27
2019-06-08T16:45:49.287Z,22.35
2019-06-08T16:50:52.363Z,22.27
2019-06-08T16:55:54.511Z,22.13
2019-06-08T17:00:56.696Z,22.04
2019-06-08T17:05:58.993Z,21.89
2019-06-08T17:11:01.129Z,21.90
2019-06-08T17:16:03.286Z,21.80
2019-06-08T17:21:05.376Z,21.72
2019-06-08T17:26:07.676Z,21.62
2019-06-08T17:31:09.754Z,21.67
2019-06-08T17:36:12.775Z,21.57
2019-06-08T17:41:15.086Z,21.48
2019-06-08T17:46:17.074Z,21.38
2019-06-08T17:51:18.981Z,21.29
2019-06-08T17:56:20.828Z,21.19
2019-06-08T18:01:22.849Z,21.17
2019-06-08T18:06:24.777Z,21.16
2019-06-08T18:11:27.954Z,21.04
2019-06-08T18:16:30.162Z,20.97
2019-06-08T18:21:32.409Z,20.91
2019-06-08T18:26:34.394Z,20.84
2019-06-08T18:31:39.658Z,20.70
2019-06-08T18:36:41.856Z,20.59
2019-06-08T18:41:45.415Z,20.55
2019-06-08T18:46:48.262Z,20.49
2019-06-08T18:51:51.995Z,20.45
2019-06-08T18:56:53.852Z,20.28
2019-06-08T19:01:56.193Z,20.25
2019-06-08T19:07:01.391Z,20.20
2019-06-08T19:12:04.689Z,20.05
2019-06-08T19:17:07.568Z,19.98
2019-06-08T19:22:09.735Z,19.94
2019-06-08T19:27:11.728Z,19.81
2019-06-08T19:32:13.711Z,19.73
2019-06-08T19:37:17.309Z,19.64
2019-06-08T19:42:35.281Z,19.53
2019-06-08T19:47:24.437Z,19.45
2019-06-08T19:52:26.357Z,19.45
2019-06-08T19:57:28.459Z,19.35
2019-06-08T20:02:30.782Z,19.34
2019-06-08T20:07:32.697Z,19.32
2019-06-08T20:12:37.200Z,19.29
2019-06-08T20:17:39.069Z,19.23
2019-06-08T20:22:41.780Z,19.16
2019-06-08T20:27:43.761Z,19.11
2019-06-08T20:32:49.517Z,19.04
2019-06-08T20:37:50.736Z,18.92
2019-06-08T20:42:54.928Z,18.90
2019-06-08T20:47:58.516Z,18.79
2019-06-08T20:53:00.774Z,18.63
2019-06-08T20:58:02.785Z,18.46
2019-06-08T21:03:04.780Z,18.45
2019-06-08T21:08:08.361Z,18.42
2019-06-08T21:13:10.888Z,18.36
2019-06-08T21:18:12.853Z,18.31
2019-06-08T21:23:16.948Z,18.28
2019-06-08T21:28:18.667Z,18.19
2019-06-08T21:33:22.172Z,18.22
2019-06-08T21:38:24.709Z,18.18
2019-06-08T21:43:28.001Z,18.09
2019-06-08T21:48:31.054Z,17.98
2019-06-08T21:53:34.950Z,17.86
2019-06-08T21:58:38.928Z,17.80
2019-06-08T22:03:41.282Z,17.75
2019-06-08T22:08:43.613Z,17.70
2019-06-08T22:13:47.697Z,17.59
2019-06-08T22:18:53.051Z,17.53
2019-06-08T22:23:57.774Z,17.40
2019-06-08T22:29:01.194Z,17.42
2019-06-08T22:34:04.024Z,17.45
2019-06-08T22:39:08.064Z,17.58
2019-06-08T22:44:12.569Z,17.50
2019-06-08T22:49:18.570Z,17.39
2019-06-08T22:54:20.811Z,17.28
2019-06-08T22:59:22.727Z,17.02
2019-06-08T23:04:24.778Z,16.85
2019-06-08T23:09:28.363Z,16.83
2019-06-08T23:14:30.905Z,16.80
2019-06-08T23:19:33.102Z,16.74
2019-06-08T23:24:35.141Z,16.65
2019-06-08T23:29:38.152Z,16.48
2019-06-08T23:34:40.725Z,16.34
2019-06-08T23:39:42.960Z,16.30
2019-06-08T23:44:47.151Z,16.22
2019-06-08T23:49:49.305Z,16.14
2019-06-08T23:54:51.611Z,16.24
2019-06-08T23:59:53.633Z,16.29
